Time;durP1;ratioP1;P1;durP2;ratioP2;P2;SDS_P1;SDS_P2;PMS_P1;PMS_P2;Temp;Humidity;BMP_temperature;BMP_pressure;BME280_temperature;BME280_humidity;BME280_pressure;Samples;Min_cycle;Max_cycle;Signal;HPM_P1;HPM_P2
2023/03/08 00:02:20;;;;;;;17.90;6.83;;;3.70;31.80;;;;;;5036363;28;46219;-80
2023/03/08 00:04:45;;;;;;;14.27;6.90;;;3.70;31.90;;;;;;5036923;28;46483;-79
2023/03/08 00:07:11;;;;;;;14.73;6.77;;;3.70;31.80;;;;;;5018706;28;46443;-81
2023/03/08 00:09:37;;;;;;;14.40;6.57;;;3.70;31.80;;;;;;5039928;28;46478;-82
2023/03/08 00:12:03;;;;;;;11.80;6.03;;;3.70;31.80;;;;;;5018836;28;46445;-82
2023/03/08 00:14:28;;;;;;;11.93;6.80;;;3.60;31.80;;;;;;5043479;28;46358;-82
2023/03/08 00:16:54;;;;;;;12.27;6.13;;;3.60;31.80;;;;;;5039128;28;46279;-80
2023/03/08 00:19:19;;;;;;;11.20;6.23;;;3.60;31.80;;;;;;5035362;28;46331;-81
2023/03/08 00:21:45;;;;;;;11.97;6.17;;;3.70;31.60;;;;;;5041963;28;46273;-80
2023/03/08 00:24:11;;;;;;;10.63;6.03;;;3.70;31.40;;;;;;5039607;28;46600;-79
2023/03/08 00:26:37;;;;;;;12.13;5.90;;;3.70;32.40;;;;;;5018676;28;46832;-78
2023/03/08 00:29:03;;;;;;;13.07;5.70;;;3.70;31.10;;;;;;5037687;28;46381;-78
2023/03/08 00:31:28;;;;;;;11.33;5.90;;;3.70;31.10;;;;;;5013969;28;46818;-78
2023/03/08 00:33:54;;;;;;;10.80;6.27;;;3.70;31.10;;;;;;5040075;28;46498;-80
2023/03/08 00:36:20;;;;;;;8.40;5.40;;;3.70;31.10;;;;;;5033173;28;46439;-79
2023/03/08 00:38:47;;;;;;;12.80;6.60;;;3.70;31.00;;;;;;5040041;28;46475;-80
2023/03/08 00:41:13;;;;;;;12.68;6.07;;;3.60;31.10;;;;;;5035696;28;46769;-80
2023/03/08 00:43:41;;;;;;;13.83;6.70;;;3.60;31.00;;;;;;5042898;28;46340;-78
2023/03/08 00:46:06;;;;;;;11.13;6.50;;;3.60;31.10;;;;;;5037408;28;46260;-77
2023/03/08 00:48:32;;;;;;;10.13;5.80;;;3.50;31.20;;;;;;5039906;28;47089;-80
2023/03/08 00:50:58;;;;;;;13.40;7.20;;;3.50;31.30;;;;;;5032845;28;45796;-80
2023/03/08 00:53:24;;;;;;;15.50;7.60;;;3.40;32.60;;;;;;5034109;28;46251;-80
2023/03/08 00:55:54;;;;;;;17.13;6.73;;;3.40;31.50;;;;;;5034747;28;45883;-80
2023/03/08 00:58:20;;;;;;;9.93;6.05;;;3.40;31.60;;;;;;5019429;28;48531;-78
2023/03/08 01:00:47;;;;;;;12.55;6.75;;;3.30;31.60;;;;;;5040557;28;46230;-78
2023/03/08 01:03:13;;;;;;;16.20;7.05;;;3.40;31.80;;;;;;5025013;28;47016;-81
2023/03/08 01:05:47;;;;;;;15.20;7.30;;;3.20;31.80;;;;;;5023332;28;46434;-78
2023/03/08 01:08:14;;;;;;;11.48;5.85;;;3.20;31.80;;;;;;5041668;28;47023;-80
2023/03/08 01:10:45;;;;;;;13.52;6.97;;;3.20;31.90;;;;;;5031386;28;45894;-79
2023/03/08 01:13:11;;;;;;;16.70;8.70;;;3.10;32.20;;;;;;5026166;28;46898;-80
2023/03/08 01:15:37;;;;;;;13.57;7.40;;;3.00;32.40;;;;;;5035219;28;46355;-81
2023/03/08 01:18:04;;;;;;;14.50;7.30;;;2.90;32.60;;;;;;5038747;28;45952;-79
2023/03/08 01:20:30;;;;;;;19.23;7.40;;;2.80;33.00;;;;;;5017337;28;46586;-80
2023/03/08 01:22:55;;;;;;;15.73;7.80;;;2.70;33.10;;;;;;5030651;28;45919;-79
2023/03/08 01:25:21;;;;;;;12.73;7.13;;;2.60;33.10;;;;;;5033068;28;46871;-81
2023/03/08 01:27:46;;;;;;;11.13;6.30;;;2.50;32.90;;;;;;5034151;28;47015;-79
2023/03/08 01:30:12;;;;;;;11.47;6.33;;;2.40;33.30;;;;;;5030798;28;46482;-80
2023/03/08 01:32:38;;;;;;;14.67;6.90;;;2.30;33.50;;;;;;5036103;28;45887;-80
2023/03/08 01:35:04;;;;;;;12.53;7.00;;;2.20;33.70;;;;;;5039048;28;46906;-78
2023/03/08 01:37:31;;;;;;;18.27;8.00;;;2.20;33.80;;;;;;5036294;28;46209;-79
2023/03/08 01:39:57;;;;;;;15.38;6.90;;;2.20;33.90;;;;;;5023511;28;46688;-80
2023/03/08 01:42:22;;;;;;;16.70;7.53;;;2.20;33.90;;;;;;5038621;28;46748;-79
2023/03/08 01:44:56;;;;;;;13.77;6.80;;;2.10;34.10;;;;;;5038994;28;46528;-79
2023/03/08 01:47:27;;;;;;;19.08;7.35;;;2.10;34.20;;;;;;5034274;28;46397;-79
2023/03/08 01:49:57;;;;;;;17.25;8.07;;;2.10;34.30;;;;;;5022707;28;46498;-78
2023/03/08 01:52:33;;;;;;;14.80;7.82;;;2.00;34.40;;;;;;5042051;28;46258;-78
2023/03/08 01:55:09;;;;;;;14.10;7.13;;;1.90;34.70;;;;;;5043461;28;46368;-78
2023/03/08 01:57:40;;;;;;;18.92;9.80;;;1.90;35.00;;;;;;5017629;28;48767;-77
2023/03/08 02:00:13;;;;;;;18.50;8.35;;;1.80;34.90;;;;;;5039104;28;46392;-78
2023/03/08 02:02:47;;;;;;;17.48;8.77;;;1.80;35.00;;;;;;5019409;28;46467;-82
2023/03/08 02:05:13;;;;;;;15.13;7.55;;;1.80;35.10;;;;;;5028212;28;46400;-79
2023/03/08 02:07:39;;;;;;;19.20;8.27;;;1.80;35.10;;;;;;5026862;28;47778;-80
2023/03/08 02:10:05;;;;;;;14.20;7.37;;;1.80;35.30;;;;;;5030815;28;47829;-79
2023/03/08 02:12:31;;;;;;;17.25;9.00;;;1.80;35.30;;;;;;5038175;28;46941;-81
2023/03/08 02:14:57;;;;;;;19.65;7.55;;;1.80;35.40;;;;;;5042714;28;46520;-81
2023/03/08 02:17:24;;;;;;;17.75;8.25;;;1.80;35.40;;;;;;5039985;28;46285;-79
2023/03/08 02:20:07;;;;;;;17.48;8.50;;;1.80;35.60;;;;;;5039875;28;46447;-79
2023/03/08 02:22:38;;;;;;;12.40;7.07;;;1.70;35.80;;;;;;5035616;28;46140;-79
2023/03/08 02:25:22;;;;;;;16.05;7.65;;;1.70;35.90;;;;;;5038799;28;46639;-79
2023/03/08 02:27:50;;;;;;;17.95;8.18;;;1.70;36.00;;;;;;5028351;28;48135;-79
2023/03/08 02:30:24;;;;;;;17.63;8.35;;;1.70;36.10;;;;;;5020016;28;46570;-78
2023/03/08 02:32:49;;;;;;;17.55;9.20;;;1.80;36.10;;;;;;5023573;28;45799;-77
2023/03/08 02:35:15;;;;;;;28.27;14.47;;;1.70;36.20;;;;;;5036436;28;46253;-80
2023/03/08 02:37:41;;;;;;;21.00;10.17;;;1.70;36.20;;;;;;5041820;28;46633;-78
2023/03/08 02:40:08;;;;;;;15.30;8.23;;;1.70;36.40;;;;;;5039422;28;46447;-80
2023/03/08 02:42:33;;;;;;;44.55;18.92;;;1.70;36.70;;;;;;5037681;28;46445;-80
2023/03/08 02:44:59;;;;;;;19.43;9.27;;;1.60;36.60;;;;;;5041012;28;46911;-80
2023/03/08 02:47:24;;;;;;;21.63;10.00;;;1.60;36.80;;;;;;5035239;28;46407;-78
2023/03/08 02:49:50;;;;;;;19.20;9.17;;;1.60;37.00;;;;;;5037815;28;46397;-80
2023/03/08 02:52:16;;;;;;;15.50;8.20;;;1.70;37.10;;;;;;5019915;28;46495;-80
2023/03/08 02:54:41;;;;;;;17.10;8.90;;;1.60;37.20;;;;;;5039970;28;45879;-78
2023/03/08 02:57:07;;;;;;;20.20;10.00;;;1.60;37.10;;;;;;5038136;28;47094;-79
2023/03/08 02:59:32;;;;;;;18.83;9.60;;;1.60;37.20;;;;;;5039896;28;46485;-80
2023/03/08 03:01:58;;;;;;;16.93;9.20;;;1.60;37.50;;;;;;5035408;28;46501;-79
2023/03/08 03:04:27;;;;;;;14.80;8.33;;;1.60;37.70;;;;;;5017649;28;46331;-82
2023/03/08 03:06:53;;;;;;;21.00;9.40;;;1.60;37.80;;;;;;5042769;28;46032;-77
2023/03/08 03:09:18;;;;;;;17.27;8.60;;;1.60;37.80;;;;;;5040237;28;46399;-79
2023/03/08 03:11:44;;;;;;;18.37;8.70;;;1.60;38.10;;;;;;5037754;28;46440;-78
2023/03/08 03:14:09;;;;;;;14.53;8.40;;;1.50;38.00;;;;;;5040036;28;45904;-79
2023/03/08 03:16:35;;;;;;;20.00;8.97;;;1.50;38.10;;;;;;5044941;28;46526;-78
2023/03/08 03:19:01;;;;;;;21.65;9.15;;;1.50;38.30;;;;;;5043555;28;46558;-79
2023/03/08 03:21:27;;;;;;;14.93;8.40;;;1.50;38.40;;;;;;5026269;28;46483;-78
2023/03/08 03:23:54;;;;;;;19.20;9.00;;;1.50;38.40;;;;;;5026359;28;46578;-79
2023/03/08 03:26:21;;;;;;;18.63;9.23;;;1.50;38.30;;;;;;5050216;28;46576;-80
2023/03/08 03:28:47;;;;;;;17.77;9.25;;;1.60;38.30;;;;;;5038479;28;46301;-79
2023/03/08 03:31:19;;;;;;;19.50;8.85;;;1.60;38.30;;;;;;5041523;28;46372;-79
2023/03/08 03:33:46;;;;;;;20.20;8.48;;;1.70;38.20;;;;;;5041978;28;46344;-79
2023/03/08 03:36:14;;;;;;;16.88;8.48;;;1.80;38.10;;;;;;5049594;28;46346;-79
2023/03/08 03:38:40;;;;;;;17.65;8.75;;;1.80;38.00;;;;;;5038029;28;46753;-77
2023/03/08 03:41:09;;;;;;;20.67;8.40;;;1.90;38.10;;;;;;5044685;28;46467;-79
2023/03/08 03:43:36;;;;;;;19.05;9.23;;;1.90;38.00;;;;;;5049927;28;45932;-79
2023/03/08 03:46:04;;;;;;;19.15;9.50;;;2.00;38.00;;;;;;5029932;28;48419;-80
2023/03/08 03:48:30;;;;;;;16.25;9.40;;;2.00;38.10;;;;;;5022255;28;46542;-83
2023/03/08 03:50:58;;;;;;;24.88;9.93;;;2.10;38.10;;;;;;5046254;28;46288;-82
2023/03/08 03:53:26;;;;;;;18.40;9.70;;;2.10;38.10;;;;;;5038054;28;46575;-78
2023/03/08 03:55:51;;;;;;;21.60;9.63;;;2.10;38.30;;;;;;5041023;28;47235;-77
2023/03/08 03:58:17;;;;;;;19.53;8.97;;;2.20;38.20;;;;;;5017260;28;46400;-80
2023/03/08 04:00:42;;;;;;;17.30;9.47;;;2.20;38.10;;;;;;5034143;28;46372;-79
2023/03/08 04:03:08;;;;;;;18.20;10.03;;;2.30;38.10;;;;;;5035096;28;46456;-79
2023/03/08 04:05:34;;;;;;;19.70;10.03;;;2.30;38.00;;;;;;5035952;28;47301;-79
2023/03/08 04:07:59;;;;;;;20.67;10.47;;;2.40;38.00;;;;;;5034418;28;46420;-80
2023/03/08 04:10:25;;;;;;;19.17;9.97;;;2.40;38.00;;;;;;5036701;28;46471;-80
2023/03/08 04:12:51;;;;;;;19.63;9.83;;;2.50;37.80;;;;;;5035654;28;46476;-79
2023/03/08 04:15:17;;;;;;;16.80;9.97;;;2.50;37.80;;;;;;5017148;28;46313;-80
2023/03/08 04:17:43;;;;;;;18.03;10.20;;;2.60;37.80;;;;;;5034745;28;46362;-79
2023/03/08 04:20:09;;;;;;;25.23;9.95;;;2.60;37.80;;;;;;5032897;28;46543;-76
2023/03/08 04:22:35;;;;;;;19.90;9.68;;;2.60;37.80;;;;;;5034526;28;46745;-80
2023/03/08 04:25:00;;;;;;;20.77;10.30;;;2.60;37.70;;;;;;5034390;28;46480;-78
2023/03/08 04:27:26;;;;;;;18.80;10.30;;;2.70;38.00;;;;;;5037580;28;46382;-79
2023/03/08 04:29:52;;;;;;;20.80;10.10;;;2.70;37.90;;;;;;5030954;28;45883;-81
2023/03/08 04:32:18;;;;;;;20.50;9.70;;;2.70;37.90;;;;;;5037308;28;47077;-80
2023/03/08 04:34:43;;;;;;;19.07;9.57;;;2.80;38.10;;;;;;5036176;28;46214;-79
2023/03/08 04:37:12;;;;;;;36.47;19.17;;;2.80;38.00;;;;;;5035676;28;46401;-78
2023/03/08 04:39:38;;;;;;;26.55;12.70;;;2.80;37.90;;;;;;5018142;28;46385;-78
2023/03/08 04:42:04;;;;;;;20.60;10.20;;;2.80;38.10;;;;;;5024097;28;46570;-78
2023/03/08 04:44:30;;;;;;;22.83;11.32;;;2.70;38.20;;;;;;5036707;28;46207;-79
2023/03/08 04:46:55;;;;;;;20.00;10.30;;;2.70;38.30;;;;;;5037340;28;46823;-78
2023/03/08 04:49:22;;;;;;;18.50;10.57;;;2.60;38.40;;;;;;5016790;28;46182;-79
2023/03/08 04:51:48;;;;;;;21.10;11.30;;;2.50;38.30;;;;;;5018292;28;47254;-78
2023/03/08 04:54:13;;;;;;;23.60;11.50;;;2.50;38.50;;;;;;5034730;28;46019;-78
2023/03/08 04:56:39;;;;;;;25.13;12.80;;;2.40;38.50;;;;;;5041013;28;46277;-79
2023/03/08 04:59:04;;;;;;;22.83;11.10;;;2.40;38.60;;;;;;5035582;28;46617;-78
2023/03/08 05:01:30;;;;;;;23.57;11.00;;;2.40;38.50;;;;;;5031022;28;46459;-79
2023/03/08 05:03:56;;;;;;;21.90;10.70;;;2.50;38.40;;;;;;5014210;28;49190;-77
2023/03/08 05:06:23;;;;;;;19.50;11.10;;;2.50;38.30;;;;;;5017615;28;46455;-79
2023/03/08 05:08:49;;;;;;;25.58;12.02;;;2.50;38.20;;;;;;5032986;28;46347;-80
2023/03/08 05:11:21;;;;;;;25.23;12.23;;;2.60;38.10;;;;;;5036580;28;45966;-80
2023/03/08 05:13:47;;;;;;;20.35;11.00;;;2.60;37.90;;;;;;5031624;28;47622;-78
2023/03/08 05:16:12;;;;;;;22.47;11.83;;;2.60;37.90;;;;;;5033023;28;46469;-78
2023/03/08 05:18:38;;;;;;;36.63;17.37;;;2.70;37.90;;;;;;5035797;28;46397;-82
2023/03/08 05:21:06;;;;;;;50.57;22.97;;;2.70;37.80;;;;;;5036483;28;46606;-79
2023/03/08 05:23:32;;;;;;;35.95;16.60;;;2.80;37.80;;;;;;5037497;28;46659;-80
2023/03/08 05:26:00;;;;;;;26.90;13.13;;;2.90;37.50;;;;;;5016036;28;47010;-81
2023/03/08 05:28:28;;;;;;;20.48;10.93;;;2.90;37.40;;;;;;5039678;28;45883;-80
2023/03/08 05:31:05;;;;;;;16.70;9.60;;;2.80;37.30;;;;;;5019396;28;46476;-81
2023/03/08 05:33:31;;;;;;;15.23;9.05;;;2.90;37.60;;;;;;5039412;28;46380;-80
2023/03/08 05:35:57;;;;;;;22.00;10.87;;;2.80;38.10;;;;;;5038712;28;46385;-81
2023/03/08 05:38:23;;;;;;;18.63;9.25;;;2.80;38.30;;;;;;5036899;28;46221;-81
2023/03/08 05:40:49;;;;;;;18.80;9.60;;;2.80;38.40;;;;;;5019001;28;46700;-82
2023/03/08 05:43:16;;;;;;;19.17;9.33;;;2.80;38.50;;;;;;5040470;28;46456;-78
2023/03/08 05:45:41;;;;;;;20.55;9.98;;;2.80;38.60;;;;;;5039341;28;46647;-80
2023/03/08 05:48:07;;;;;;;17.13;9.80;;;2.90;38.50;;;;;;5037308;28;46532;-80
2023/03/08 05:50:33;;;;;;;22.50;11.07;;;3.00;38.40;;;;;;5038714;28;46561;-79
2023/03/08 05:52:58;;;;;;;17.57;10.40;;;3.00;38.40;;;;;;5036582;28;47199;-77
2023/03/08 05:55:24;;;;;;;17.63;9.30;;;3.10;38.30;;;;;;5040826;28;46526;-78
2023/03/08 05:57:49;;;;;;;18.30;9.80;;;3.20;38.30;;;;;;5034904;28;45794;-80
2023/03/08 06:00:16;;;;;;;24.67;14.60;;;3.20;38.20;;;;;;5038021;28;46520;-78
2023/03/08 06:02:41;;;;;;;25.17;12.32;;;3.30;38.20;;;;;;5018695;28;48201;-79
2023/03/08 06:05:07;;;;;;;17.80;10.90;;;3.30;38.00;;;;;;5035125;28;46751;-80
2023/03/08 06:07:33;;;;;;;19.42;10.00;;;3.40;37.90;;;;;;5032458;28;46372;-77
2023/03/08 06:09:59;;;;;;;18.70;10.80;;;3.50;37.80;;;;;;5022002;28;46714;-79
2023/03/08 06:12:25;;;;;;;23.73;11.57;;;3.60;37.70;;;;;;5036326;28;47113;-81
2023/03/08 06:14:50;;;;;;;21.20;10.07;;;3.70;37.30;;;;;;5037020;28;46443;-80
2023/03/08 06:17:16;;;;;;;19.10;10.83;;;3.80;37.10;;;;;;5035976;28;46418;-79
2023/03/08 06:19:41;;;;;;;23.00;11.20;;;3.90;37.10;;;;;;5034818;28;46469;-79
2023/03/08 06:22:07;;;;;;;16.70;9.60;;;3.90;36.90;;;;;;5036986;28;46396;-80
2023/03/08 06:24:32;;;;;;;21.37;11.10;;;4.00;36.90;;;;;;5036424;28;46547;-79
2023/03/08 06:26:58;;;;;;;22.27;11.80;;;4.00;37.10;;;;;;5033690;28;46457;-81
2023/03/08 06:29:24;;;;;;;19.02;10.30;;;4.00;37.00;;;;;;5036314;28;46660;-79
2023/03/08 06:31:50;;;;;;;23.95;11.00;;;4.10;37.10;;;;;;5035098;28;46472;-79
2023/03/08 06:34:16;;;;;;;21.10;10.70;;;4.10;37.00;;;;;;5034971;28;46450;-78
2023/03/08 06:36:41;;;;;;;24.77;11.00;;;4.10;36.90;;;;;;5038193;28;46399;-78
2023/03/08 06:39:08;;;;;;;22.70;10.47;;;4.10;37.10;;;;;;5036916;28;46522;-80
2023/03/08 06:41:34;;;;;;;22.00;9.70;;;4.20;37.20;;;;;;5034710;28;47953;-80
2023/03/08 06:44:00;;;;;;;20.80;11.53;;;4.20;37.20;;;;;;5037534;28;46440;-80
2023/03/08 06:46:26;;;;;;;18.30;10.33;;;4.30;37.20;;;;;;5016708;28;46373;-80
2023/03/08 06:48:52;;;;;;;17.97;10.27;;;4.30;37.10;;;;;;5022614;28;46156;-78
2023/03/08 06:51:18;;;;;;;24.53;11.80;;;4.50;37.00;;;;;;5035144;28;47318;-79
2023/03/08 06:53:44;;;;;;;23.13;11.90;;;4.50;36.90;;;;;;5036662;28;46416;-77
2023/03/08 06:56:15;;;;;;;23.73;10.95;;;4.60;36.70;;;;;;5027570;28;46345;-79
2023/03/08 06:58:41;;;;;;;21.60;11.27;;;4.60;36.60;;;;;;5022629;28;46414;-78
2023/03/08 07:01:09;;;;;;;20.02;11.15;;;4.70;36.80;;;;;;5033888;28;46496;-77
2023/03/08 07:03:35;;;;;;;20.15;10.55;;;4.70;36.80;;;;;;5034338;28;46455;-79
2023/03/08 07:06:04;;;;;;;24.30;11.03;;;4.70;36.70;;;;;;5034777;28;45787;-79
2023/03/08 07:08:31;;;;;;;23.93;11.07;;;4.80;36.70;;;;;;5036515;28;46730;-78
2023/03/08 07:11:00;;;;;;;22.10;12.00;;;4.80;36.70;;;;;;4998899;28;48031;-80
2023/03/08 07:13:25;;;;;;;24.45;12.52;;;4.90;36.60;;;;;;5015867;28;46476;-80
2023/03/08 07:15:51;;;;;;;24.67;10.53;;;4.90;36.70;;;;;;5036078;28;46267;-82
2023/03/08 07:18:18;;;;;;;23.00;9.87;;;5.00;36.80;;;;;;5032322;28;46681;-79
2023/03/08 07:20:43;;;;;;;21.57;10.93;;;5.00;36.80;;;;;;5018726;28;46407;-82
2023/03/08 07:23:09;;;;;;;21.33;10.90;;;5.00;37.20;;;;;;5035418;28;46469;-83
2023/03/08 07:25:38;;;;;;;20.20;10.73;;;5.10;37.00;;;;;;5023969;28;46489;-82
2023/03/08 07:28:04;;;;;;;24.00;10.90;;;5.10;36.60;;;;;;5024110;28;46367;-82
2023/03/08 07:30:30;;;;;;;24.70;13.70;;;5.20;36.60;;;;;;5036328;28;47261;-80
2023/03/08 07:32:55;;;;;;;18.00;10.43;;;5.30;36.20;;;;;;5034045;28;46444;-79
2023/03/08 07:35:21;;;;;;;18.30;11.00;;;5.50;36.00;;;;;;5032904;28;46358;-81
2023/03/08 07:37:47;;;;;;;19.03;10.50;;;5.60;35.60;;;;;;5032318;28;46357;-80
2023/03/08 07:40:15;;;;;;;23.20;11.47;;;5.60;35.60;;;;;;5033362;28;46445;-79
2023/03/08 07:42:41;;;;;;;19.60;11.20;;;5.70;35.70;;;;;;5034386;28;46685;-78
2023/03/08 07:45:07;;;;;;;23.13;11.93;;;5.80;35.80;;;;;;5034364;28;46479;-79
2023/03/08 07:47:33;;;;;;;24.67;13.00;;;6.10;35.60;;;;;;5030719;28;46443;-80
2023/03/08 07:49:59;;;;;;;23.60;12.57;;;6.30;35.30;;;;;;5029100;28;47402;-80
2023/03/08 07:52:28;;;;;;;24.87;12.73;;;6.40;35.00;;;;;;5019821;28;46457;-80
2023/03/08 07:54:54;;;;;;;19.43;11.20;;;6.60;34.80;;;;;;5036619;28;46574;-79
2023/03/08 07:57:20;;;;;;;24.90;12.60;;;6.80;34.40;;;;;;5020161;28;46762;-79
2023/03/08 07:59:46;;;;;;;19.17;11.00;;;6.90;34.20;;;;;;5040944;28;46380;-80
2023/03/08 08:02:13;;;;;;;20.77;11.20;;;6.90;34.00;;;;;;5034245;28;46484;-80
2023/03/08 08:04:39;;;;;;;22.17;10.77;;;6.90;34.10;;;;;;5036350;28;46392;-78
2023/03/08 08:07:05;;;;;;;21.00;11.17;;;6.80;34.20;;;;;;5031142;28;46325;-78
2023/03/08 08:09:31;;;;;;;18.40;10.30;;;6.90;34.00;;;;;;5037043;28;46485;-78
2023/03/08 08:11:56;;;;;;;17.47;10.57;;;6.90;33.80;;;;;;5033011;28;46562;-80
2023/03/08 08:14:22;;;;;;;20.50;11.53;;;6.70;34.20;;;;;;5014410;28;45821;-79
2023/03/08 08:16:47;;;;;;;17.33;9.40;;;6.70;34.30;;;;;;5034223;28;46504;-79
2023/03/08 08:19:13;;;;;;;23.47;10.93;;;6.70;34.40;;;;;;5036855;28;46376;-81
2023/03/08 08:21:40;;;;;;;19.70;10.93;;;6.90;34.30;;;;;;5023288;28;46440;-81
2023/03/08 08:24:06;;;;;;;21.40;11.40;;;6.80;34.00;;;;;;5034358;28;46663;-79
2023/03/08 08:26:31;;;;;;;16.07;10.30;;;6.90;34.00;;;;;;5031550;28;46912;-77
2023/03/08 08:28:57;;;;;;;19.90;10.87;;;7.10;33.80;;;;;;5028326;28;46495;-76
2023/03/08 08:31:29;;;;;;;24.40;10.10;;;7.30;33.50;;;;;;5036350;28;46483;-79
2023/03/08 08:33:55;;;;;;;19.37;10.07;;;7.30;32.90;;;;;;5039787;28;46450;-76
2023/03/08 08:36:21;;;;;;;22.30;10.23;;;7.30;32.70;;;;;;5012347;28;46660;-79
2023/03/08 08:38:47;;;;;;;21.33;10.27;;;7.20;32.70;;;;;;5013382;28;48242;-79
2023/03/08 08:41:15;;;;;;;16.60;9.40;;;7.10;32.40;;;;;;5031580;28;46459;-80
2023/03/08 08:43:41;;;;;;;20.67;10.60;;;7.10;32.60;;;;;;5019262;28;46744;-79
2023/03/08 08:46:06;;;;;;;24.03;10.70;;;7.00;32.50;;;;;;5032048;28;46405;-79
2023/03/08 08:48:32;;;;;;;20.90;10.60;;;7.00;32.70;;;;;;5013845;28;49277;-78
2023/03/08 08:50:59;;;;;;;20.20;12.00;;;7.00;32.20;;;;;;5030366;28;46459;-78
2023/03/08 08:53:25;;;;;;;20.77;11.00;;;6.90;32.30;;;;;;5035569;28;46373;-80
2023/03/08 08:55:51;;;;;;;18.70;10.60;;;7.10;32.40;;;;;;5033326;28;46448;-78
2023/03/08 08:58:16;;;;;;;16.70;9.50;;;7.00;32.20;;;;;;5034502;28;46413;-79
2023/03/08 09:00:43;;;;;;;16.33;10.43;;;7.00;32.20;;;;;;5038603;28;46774;-80
2023/03/08 09:03:09;;;;;;;17.90;9.10;;;7.00;32.10;;;;;;5028793;28;47434;-80
2023/03/08 09:05:39;;;;;;;18.90;10.53;;;6.90;32.20;;;;;;5034340;28;46298;-78
2023/03/08 09:08:05;;;;;;;19.40;10.63;;;7.00;32.30;;;;;;5031599;28;46420;-79
2023/03/08 09:10:34;;;;;;;19.00;10.30;;;7.10;32.00;;;;;;5022617;28;46409;-84
2023/03/08 09:12:59;;;;;;;18.20;9.80;;;7.10;31.80;;;;;;5037011;28;46399;-79
2023/03/08 09:15:25;;;;;;;17.87;10.60;;;7.20;31.70;;;;;;5016847;28;46369;-81
2023/03/08 09:17:51;;;;;;;24.13;11.20;;;7.20;31.80;;;;;;5013590;28;48388;-82
2023/03/08 09:20:17;;;;;;;17.07;9.97;;;7.30;32.00;;;;;;5030659;28;45952;-78
2023/03/08 09:22:43;;;;;;;20.47;10.37;;;7.30;31.90;;;;;;5010171;28;46563;-78
2023/03/08 09:25:11;;;;;;;20.00;10.73;;;7.40;31.80;;;;;;5039788;28;46398;-79
2023/03/08 09:27:38;;;;;;;17.03;10.20;;;7.50;31.60;;;;;;5028287;28;46895;-80
2023/03/08 09:30:08;;;;;;;26.23;11.27;;;7.60;31.50;;;;;;5032833;28;46485;-78
2023/03/08 09:32:34;;;;;;;20.40;11.50;;;7.70;32.50;;;;;;5034926;28;46282;-79
2023/03/08 09:34:59;;;;;;;16.60;9.57;;;7.70;31.50;;;;;;5031060;28;46480;-81
2023/03/08 09:37:25;;;;;;;16.30;9.20;;;7.60;31.40;;;;;;5033408;28;46431;-79
2023/03/08 09:39:51;;;;;;;19.47;9.63;;;7.60;31.70;;;;;;5033727;28;47518;-78
2023/03/08 09:42:31;;;;;;;18.00;9.63;;;7.50;31.80;;;;;;5036132;28;46522;-77
2023/03/08 09:45:16;;;;;;;18.17;9.80;;;7.40;32.00;;;;;;5029678;28;46453;-79
2023/03/08 09:48:06;;;;;;;18.77;10.10;;;7.40;32.30;;;;;;5027661;28;46772;-80
2023/03/08 09:50:42;;;;;;;22.83;11.53;;;7.20;32.70;;;;;;5029056;28;46383;-77
2023/03/08 09:53:27;;;;;;;18.00;9.97;;;7.20;32.80;;;;;;5035210;28;46380;-81
2023/03/08 09:56:18;;;;;;;23.50;10.43;;;7.30;32.80;;;;;;5037339;28;46543;-79
2023/03/08 09:59:00;;;;;;;22.00;11.90;;;7.30;32.50;;;;;;5031613;28;46957;-79
2023/03/08 10:01:35;;;;;;;20.53;10.27;;;7.40;32.40;;;;;;5027775;28;46321;-80
2023/03/08 10:04:33;;;;;;;17.20;10.13;;;7.40;32.30;;;;;;5034991;28;46584;-79
2023/03/08 10:07:10;;;;;;;21.97;11.73;;;7.50;32.40;;;;;;5029532;28;46447;-78
2023/03/08 10:09:54;;;;;;;20.77;11.40;;;7.50;32.40;;;;;;5029644;28;46530;-79
2023/03/08 10:12:29;;;;;;;25.60;10.63;;;7.50;32.20;;;;;;5038781;28;46350;-79
2023/03/08 10:15:07;;;;;;;25.40;13.77;;;7.60;32.20;;;;;;5019083;28;46460;-79
2023/03/08 10:17:56;;;;;;;23.97;14.10;;;7.80;32.10;;;;;;5040058;28;46266;-76
2023/03/08 10:20:26;;;;;;;18.67;9.87;;;7.70;31.90;;;;;;5041655;28;46298;-80
2023/03/08 10:23:01;;;;;;;25.93;12.67;;;7.70;32.20;;;;;;5036403;28;46404;-77
2023/03/08 10:25:32;;;;;;;19.33;10.10;;;7.70;32.50;;;;;;5049318;28;46416;-78
2023/03/08 10:28:00;;;;;;;20.83;10.37;;;7.60;32.60;;;;;;5039912;28;46775;-78
2023/03/08 10:30:39;;;;;;;22.43;10.63;;;7.50;32.70;;;;;;5035523;28;46455;-79
2023/03/08 10:33:10;;;;;;;35.13;13.23;;;7.50;33.10;;;;;;5037759;28;46701;-80
2023/03/08 10:35:51;;;;;;;22.50;10.50;;;7.50;33.40;;;;;;5020273;28;46500;-78
2023/03/08 10:38:16;;;;;;;21.90;10.40;;;7.50;33.70;;;;;;5036239;28;46388;-79
2023/03/08 10:40:42;;;;;;;16.77;10.13;;;7.40;33.80;;;;;;5035224;28;46292;-80
2023/03/08 10:43:25;;;;;;;22.80;10.50;;;7.50;33.80;;;;;;5034967;28;46368;-78
2023/03/08 10:46:22;;;;;;;18.80;10.67;;;7.50;33.70;;;;;;5021712;28;46377;-78
2023/03/08 10:48:49;;;;;;;21.93;10.53;;;7.60;33.60;;;;;;5031301;28;46557;-79
2023/03/08 10:51:23;;;;;;;21.37;11.27;;;7.70;33.30;;;;;;5035799;28;47587;-78
2023/03/08 10:53:53;;;;;;;19.87;10.30;;;7.80;33.40;;;;;;5032296;28;46401;-80
2023/03/08 10:56:43;;;;;;;18.77;10.63;;;7.80;33.60;;;;;;5038925;28;46321;-80
2023/03/08 10:59:31;;;;;;;21.73;10.40;;;7.90;33.70;;;;;;5015877;28;46370;-80
2023/03/08 11:02:12;;;;;;;20.70;11.13;;;8.00;33.70;;;;;;5027311;28;49439;-79
2023/03/08 11:04:48;;;;;;;25.47;11.57;;;8.00;33.70;;;;;;5016623;28;45822;-79
2023/03/08 11:07:24;;;;;;;19.07;10.97;;;8.10;33.60;;;;;;5038604;28;46527;-78
2023/03/08 11:09:50;;;;;;;18.47;10.43;;;8.20;33.40;;;;;;5034102;28;46235;-79
2023/03/08 11:12:25;;;;;;;21.27;11.20;;;8.40;33.20;;;;;;5037225;28;46729;-79
2023/03/08 11:14:51;;;;;;;24.37;10.57;;;8.50;33.00;;;;;;5017852;28;46716;-79
2023/03/08 11:17:34;;;;;;;17.97;10.70;;;8.60;33.20;;;;;;5038560;28;46404;-79
2023/03/08 11:20:22;;;;;;;19.83;11.00;;;8.70;32.90;;;;;;5036125;28;46513;-79
2023/03/08 11:23:11;;;;;;;22.73;10.53;;;8.80;33.00;;;;;;5043929;28;46566;-80
2023/03/08 11:25:48;;;;;;;20.53;10.67;;;8.90;32.80;;;;;;5038391;28;46325;-79
2023/03/08 11:28:40;;;;;;;22.23;11.57;;;9.00;32.50;;;;;;5042856;28;45856;-80
2023/03/08 11:31:15;;;;;;;19.40;10.87;;;9.30;32.30;;;;;;5044653;28;46600;-79
2023/03/08 11:34:16;;;;;;;18.70;9.37;;;9.30;32.20;;;;;;5044659;28;46373;-79
2023/03/08 11:37:19;;;;;;;99.90;48.10;;;9.50;32.30;;;;;;4976084;28;46475;-80
2023/03/08 11:39:59;;;;;;;17.13;9.60;;;9.60;31.90;;;;;;5041236;28;46345;-78
2023/03/08 11:42:27;;;;;;;15.53;9.53;;;9.80;31.80;;;;;;5039917;28;46281;-79
2023/03/08 11:45:45;;;;;;;19.47;8.20;;;9.80;31.80;;;;;;5041496;28;47362;-78
2023/03/08 11:48:37;;;;;;;16.77;9.17;;;9.90;31.80;;;;;;5028383;28;46423;-79
2023/03/08 11:51:12;;;;;;;14.67;9.00;;;10.10;30.50;;;;;;5042204;28;46584;-80
2023/03/08 11:54:07;;;;;;;18.77;8.90;;;10.40;30.10;;;;;;5039445;28;46366;-80
2023/03/08 11:56:40;;;;;;;16.20;8.77;;;10.70;29.70;;;;;;5037791;28;47501;-80
2023/03/08 11:59:19;;;;;;;15.13;7.47;;;11.00;29.50;;;;;;5042276;28;47412;-80
2023/03/08 12:01:55;;;;;;;14.87;6.50;;;11.20;29.10;;;;;;5039781;28;46251;-80
2023/03/08 12:04:31;;;;;;;11.90;4.60;;;11.40;28.90;;;;;;5039214;28;46475;-79
2023/03/08 12:06:59;;;;;;;5.43;3.30;;;11.50;28.80;;;;;;5044216;28;46195;-79
2023/03/08 12:09:39;;;;;;;5.70;3.27;;;11.50;28.70;;;;;;5034604;28;46733;-81
2023/03/08 12:12:17;;;;;;;7.00;3.67;;;11.70;28.60;;;;;;5029602;28;46374;-79
2023/03/08 12:14:53;;;;;;;6.70;3.13;;;11.70;28.30;;;;;;5037981;28;46479;-79
2023/03/08 12:17:24;;;;;;;6.30;2.93;;;11.90;28.10;;;;;;5017033;28;47395;-76
2023/03/08 12:19:50;;;;;;;7.93;2.90;;;12.00;28.00;;;;;;5017863;28;46820;-78
2023/03/08 12:22:29;;;;;;;6.80;3.07;;;12.30;27.70;;;;;;5032297;28;46449;-79
2023/03/08 12:25:10;;;;;;;6.10;3.27;;;12.50;27.90;;;;;;5016116;28;46450;-79
2023/03/08 12:27:39;;;;;;;6.77;3.50;;;12.60;28.00;;;;;;5038863;28;46464;-79
2023/03/08 12:30:14;;;;;;;6.20;3.50;;;12.60;27.90;;;;;;5036624;28;46384;-80
2023/03/08 12:32:41;;;;;;;6.17;3.33;;;12.70;28.00;;;;;;5020940;28;46487;-78
2023/03/08 12:35:13;;;;;;;7.00;4.17;;;12.80;28.10;;;;;;5023124;28;46366;-78
2023/03/08 12:37:39;;;;;;;7.70;3.90;;;13.00;27.60;;;;;;5035375;28;46305;-81
2023/03/08 12:40:29;;;;;;;7.33;3.30;;;13.10;27.40;;;;;;5012985;28;46331;-81
2023/03/08 12:43:10;;;;;;;11.03;4.10;;;13.00;27.30;;;;;;5015591;28;46282;-80
2023/03/08 12:45:37;;;;;;;6.90;3.63;;;13.00;27.40;;;;;;5035044;28;45887;-80
2023/03/08 12:48:03;;;;;;;9.13;4.10;;;13.30;27.20;;;;;;5018844;28;49063;-81
2023/03/08 12:50:35;;;;;;;6.93;3.50;;;13.30;27.10;;;;;;5032518;28;45806;-80
2023/03/08 12:53:01;;;;;;;5.40;3.53;;;13.30;27.00;;;;;;5032643;28;46429;-80